Canyon City, Oregon
Current Conditions -  °F | °C
As of 7:55 PM on Saturday 20 Dec 2014 (Local Time) from KGCD Reporting Station
Light Rain Light Rain  
Wind Chill: 37°   Ceiling: 4200
Heat Index: 44°   Visibility: 10mi
Dew Point: 39°   Wind: 17mph
Humidity: 80%   Direction: 210°SSW
Pressure: 29.79"   Gusts: 29mph
Location:  44.39°N, 118.95°W
Report Text: KGCD 210355Z AUTO 21015G25KT 10SM -RA SCT033 BKN042 OVC048 07/04 A2979 RMK AO2 T00690037
Loading
Personal Weather Stations






























Interactive Weather Map New forecast layout! Learn more

10-Day Weather Forecast

Advertisements
Track Severe Weather on mobile